sensor_id;sensor_type;location;lat;lon;timestamp;temperature;humidity
13332;DHT22;6735;51.456;12.626;2023-04-24T00:01:54;12.60;81.30
13332;DHT22;6735;51.456;12.626;2023-04-24T00:04:20;12.70;81.50
13332;DHT22;6735;51.456;12.626;2023-04-24T00:06:45;12.70;81.30
13332;DHT22;6735;51.456;12.626;2023-04-24T00:09:14;12.70;81.20
13332;DHT22;6735;51.456;12.626;2023-04-24T00:11:40;12.70;81.30
13332;DHT22;6735;51.456;12.626;2023-04-24T00:14:06;12.70;81.30
13332;DHT22;6735;51.456;12.626;2023-04-24T00:16:31;12.80;81.40
13332;DHT22;6735;51.456;12.626;2023-04-24T00:18:57;12.70;81.40
13332;DHT22;6735;51.456;12.626;2023-04-24T00:21:23;12.70;81.50
13332;DHT22;6735;51.456;12.626;2023-04-24T00:23:50;12.80;81.30
13332;DHT22;6735;51.456;12.626;2023-04-24T00:26:16;12.80;81.60
13332;DHT22;6735;51.456;12.626;2023-04-24T00:28:42;12.80;81.80
13332;DHT22;6735;51.456;12.626;2023-04-24T00:31:07;12.80;82.00
13332;DHT22;6735;51.456;12.626;2023-04-24T00:33:33;12.80;82.50
13332;DHT22;6735;51.456;12.626;2023-04-24T00:35:58;12.80;82.70
13332;DHT22;6735;51.456;12.626;2023-04-24T00:38:23;12.80;82.70
13332;DHT22;6735;51.456;12.626;2023-04-24T00:40:49;12.80;82.50
13332;DHT22;6735;51.456;12.626;2023-04-24T00:43:16;12.80;82.50
13332;DHT22;6735;51.456;12.626;2023-04-24T00:45:42;12.80;82.40
13332;DHT22;6735;51.456;12.626;2023-04-24T00:48:08;12.80;82.70
13332;DHT22;6735;51.456;12.626;2023-04-24T00:50:35;12.80;82.70
13332;DHT22;6735;51.456;12.626;2023-04-24T00:53:01;12.70;82.90
13332;DHT22;6735;51.456;12.626;2023-04-24T00:55:26;12.70;83.00
13332;DHT22;6735;51.456;12.626;2023-04-24T00:57:52;12.70;83.00
13332;DHT22;6735;51.456;12.626;2023-04-24T01:00:18;12.70;83.10
13332;DHT22;6735;51.456;12.626;2023-04-24T01:02:44;12.70;83.10
13332;DHT22;6735;51.456;12.626;2023-04-24T01:05:12;12.70;83.00
13332;DHT22;6735;51.456;12.626;2023-04-24T01:07:38;12.80;82.90
13332;DHT22;6735;51.456;12.626;2023-04-24T01:10:05;12.80;83.10
13332;DHT22;6735;51.456;12.626;2023-04-24T01:12:30;12.80;83.20
13332;DHT22;6735;51.456;12.626;2023-04-24T01:14:56;12.80;83.10
13332;DHT22;6735;51.456;12.626;2023-04-24T01:17:22;12.80;83.20
13332;DHT22;6735;51.456;12.626;2023-04-24T01:19:47;12.80;83.00
13332;DHT22;6735;51.456;12.626;2023-04-24T01:22:14;12.80;83.10
13332;DHT22;6735;51.456;12.626;2023-04-24T01:24:41;12.80;83.20
13332;DHT22;6735;51.456;12.626;2023-04-24T01:27:07;12.70;83.40
13332;DHT22;6735;51.456;12.626;2023-04-24T01:29:34;12.70;83.30
13332;DHT22;6735;51.456;12.626;2023-04-24T01:31:59;12.70;83.50
13332;DHT22;6735;51.456;12.626;2023-04-24T01:34:25;12.70;83.70
13332;DHT22;6735;51.456;12.626;2023-04-24T01:36:51;12.70;83.40
13332;DHT22;6735;51.456;12.626;2023-04-24T01:39:16;12.70;83.40
13332;DHT22;6735;51.456;12.626;2023-04-24T01:41:42;12.70;83.30
13332;DHT22;6735;51.456;12.626;2023-04-24T01:44:08;12.70;83.10
13332;DHT22;6735;51.456;12.626;2023-04-24T01:46:33;12.70;83.00
13332;DHT22;6735;51.456;12.626;2023-04-24T01:49:01;12.70;82.90
13332;DHT22;6735;51.456;12.626;2023-04-24T01:51:26;12.70;82.60
13332;DHT22;6735;51.456;12.626;2023-04-24T01:53:52;12.70;82.50
13332;DHT22;6735;51.456;12.626;2023-04-24T01:56:20;12.70;82.40
13332;DHT22;6735;51.456;12.626;2023-04-24T01:58:46;12.70;82.30
13332;DHT22;6735;51.456;12.626;2023-04-24T02:01:18;12.60;82.40
13332;DHT22;6735;51.456;12.626;2023-04-24T02:03:44;12.60;82.40
13332;DHT22;6735;51.456;12.626;2023-04-24T02:06:09;12.60;82.30
13332;DHT22;6735;51.456;12.626;2023-04-24T02:08:35;12.50;82.30
13332;DHT22;6735;51.456;12.626;2023-04-24T02:11:00;12.50;82.30
13332;DHT22;6735;51.456;12.626;2023-04-24T02:13:27;12.50;82.30
13332;DHT22;6735;51.456;12.626;2023-04-24T02:15:53;12.50;82.10
13332;DHT22;6735;51.456;12.626;2023-04-24T02:18:18;12.40;82.10
13332;DHT22;6735;51.456;12.626;2023-04-24T02:20:44;12.40;82.20
13332;DHT22;6735;51.456;12.626;2023-04-24T02:23:09;12.30;82.40
13332;DHT22;6735;51.456;12.626;2023-04-24T02:25:35;12.30;82.50
13332;DHT22;6735;51.456;12.626;2023-04-24T02:28:00;12.20;82.40
13332;DHT22;6735;51.456;12.626;2023-04-24T02:30:26;12.20;82.60
13332;DHT22;6735;51.456;12.626;2023-04-24T02:32:51;12.20;82.70
13332;DHT22;6735;51.456;12.626;2023-04-24T02:35:17;12.10;82.50
13332;DHT22;6735;51.456;12.626;2023-04-24T02:37:42;12.10;82.70
13332;DHT22;6735;51.456;12.626;2023-04-24T02:40:08;12.10;82.80
13332;DHT22;6735;51.456;12.626;2023-04-24T02:42:34;12.00;83.00
13332;DHT22;6735;51.456;12.626;2023-04-24T02:44:59;12.00;83.00
13332;DHT22;6735;51.456;12.626;2023-04-24T02:47:25;12.00;83.10
13332;DHT22;6735;51.456;12.626;2023-04-24T02:49:50;11.90;83.10
13332;DHT22;6735;51.456;12.626;2023-04-24T02:52:16;11.90;82.80
13332;DHT22;6735;51.456;12.626;2023-04-24T02:54:42;11.90;82.90
13332;DHT22;6735;51.456;12.626;2023-04-24T02:57:08;11.80;83.30
13332;DHT22;6735;51.456;12.626;2023-04-24T02:59:33;11.80;83.30
13332;DHT22;6735;51.456;12.626;2023-04-24T03:01:59;11.80;83.30
13332;DHT22;6735;51.456;12.626;2023-04-24T03:04:24;11.70;83.20
13332;DHT22;6735;51.456;12.626;2023-04-24T03:06:50;11.70;83.20
13332;DHT22;6735;51.456;12.626;2023-04-24T03:09:18;11.70;83.20
13332;DHT22;6735;51.456;12.626;2023-04-24T03:11:43;11.70;83.20
13332;DHT22;6735;51.456;12.626;2023-04-24T03:14:09;11.80;82.80
13332;DHT22;6735;51.456;12.626;2023-04-24T03:16:34;11.70;82.80
13332;DHT22;6735;51.456;12.626;2023-04-24T03:19:00;11.60;82.80
13332;DHT22;6735;51.456;12.626;2023-04-24T03:21:25;11.70;82.80
13332;DHT22;6735;51.456;12.626;2023-04-24T03:23:51;11.60;82.70
13332;DHT22;6735;51.456;12.626;2023-04-24T03:26:17;11.60;82.70
13332;DHT22;6735;51.456;12.626;2023-04-24T03:28:42;11.50;82.70
13332;DHT22;6735;51.456;12.626;2023-04-24T03:31:08;11.50;82.90
13332;DHT22;6735;51.456;12.626;2023-04-24T03:33:33;11.40;83.00
13332;DHT22;6735;51.456;12.626;2023-04-24T03:35:59;11.40;83.10
13332;DHT22;6735;51.456;12.626;2023-04-24T03:38:24;11.40;83.00
13332;DHT22;6735;51.456;12.626;2023-04-24T03:40:50;11.40;83.00
13332;DHT22;6735;51.456;12.626;2023-04-24T03:43:15;11.40;83.00
13332;DHT22;6735;51.456;12.626;2023-04-24T03:45:41;11.30;82.90
13332;DHT22;6735;51.456;12.626;2023-04-24T03:48:06;11.30;83.00
13332;DHT22;6735;51.456;12.626;2023-04-24T03:50:32;11.30;83.00
13332;DHT22;6735;51.456;12.626;2023-04-24T03:52:58;11.20;83.20
13332;DHT22;6735;51.456;12.626;2023-04-24T03:55:23;11.20;83.20
13332;DHT22;6735;51.456;12.626;2023-04-24T03:57:49;11.20;83.20
13332;DHT22;6735;51.456;12.626;2023-04-24T04:00:15;11.20;83.40
13332;DHT22;6735;51.456;12.626;2023-04-24T04:02:41;11.20;83.50
13332;DHT22;6735;51.456;12.626;2023-04-24T04:05:06;11.10;83.60
13332;DHT22;6735;51.456;12.626;2023-04-24T04:07:33;11.10;83.40
13332;DHT22;6735;51.456;12.626;2023-04-24T04:09:58;11.10;83.40
13332;DHT22;6735;51.456;12.626;2023-04-24T04:12:24;11.00;83.30
13332;DHT22;6735;51.456;12.626;2023-04-24T04:14:49;11.00;83.20
13332;DHT22;6735;51.456;12.626;2023-04-24T04:17:15;10.90;83.20
13332;DHT22;6735;51.456;12.626;2023-04-24T04:19:41;11.00;83.30
13332;DHT22;6735;51.456;12.626;2023-04-24T04:22:07;10.90;83.30
13332;DHT22;6735;51.456;12.626;2023-04-24T04:24:33;10.90;83.20
13332;DHT22;6735;51.456;12.626;2023-04-24T04:26:59;10.90;83.20
13332;DHT22;6735;51.456;12.626;2023-04-24T04:29:24;10.90;83.20
13332;DHT22;6735;51.456;12.626;2023-04-24T04:31:51;10.90;83.20
13332;DHT22;6735;51.456;12.626;2023-04-24T04:34:16;11.00;83.20
13332;DHT22;6735;51.456;12.626;2023-04-24T04:36:42;10.90;83.10
13332;DHT22;6735;51.456;12.626;2023-04-24T04:39:08;10.90;83.10
13332;DHT22;6735;51.456;12.626;2023-04-24T04:41:33;10.90;83.20
13332;DHT22;6735;51.456;12.626;2023-04-24T04:44:01;10.90;83.20
13332;DHT22;6735;51.456;12.626;2023-04-24T04:46:26;11.00;83.30
13332;DHT22;6735;51.456;12.626;2023-04-24T04:48:53;11.00;83.40
13332;DHT22;6735;51.456;12.626;2023-04-24T04:51:19;11.10;83.40
13332;DHT22;6735;51.456;12.626;2023-04-24T04:53:45;11.10;83.50
13332;DHT22;6735;51.456;12.626;2023-04-24T04:56:10;11.20;83.50
13332;DHT22;6735;51.456;12.626;2023-04-24T04:58:36;11.20;83.40
13332;DHT22;6735;51.456;12.626;2023-04-24T05:01:01;11.30;83.40
13332;DHT22;6735;51.456;12.626;2023-04-24T05:03:27;11.40;83.30
13332;DHT22;6735;51.456;12.626;2023-04-24T05:05:53;11.50;83.30
13332;DHT22;6735;51.456;12.626;2023-04-24T05:08:18;11.50;83.30
13332;DHT22;6735;51.456;12.626;2023-04-24T05:10:44;11.60;83.20
13332;DHT22;6735;51.456;12.626;2023-04-24T05:13:09;11.70;83.20
13332;DHT22;6735;51.456;12.626;2023-04-24T05:15:34;11.80;83.20
13332;DHT22;6735;51.456;12.626;2023-04-24T05:18:00;11.90;82.90
13332;DHT22;6735;51.456;12.626;2023-04-24T05:20:25;12.10;82.60
13332;DHT22;6735;51.456;12.626;2023-04-24T05:22:51;12.20;82.10
13332;DHT22;6735;51.456;12.626;2023-04-24T05:25:16;12.60;81.70
13332;DHT22;6735;51.456;12.626;2023-04-24T05:27:42;13.00;80.80
13332;DHT22;6735;51.456;12.626;2023-04-24T05:30:08;13.20;79.60
13332;DHT22;6735;51.456;12.626;2023-04-24T05:32:34;13.30;79.10
13332;DHT22;6735;51.456;12.626;2023-04-24T05:35:00;13.50;79.00
13332;DHT22;6735;51.456;12.626;2023-04-24T05:37:25;14.20;77.80
13332;DHT22;6735;51.456;12.626;2023-04-24T05:39:51;15.60;73.10
13332;DHT22;6735;51.456;12.626;2023-04-24T05:42:16;16.70;71.70
13332;DHT22;6735;51.456;12.626;2023-04-24T05:44:42;16.70;69.10
13332;DHT22;6735;51.456;12.626;2023-04-24T05:47:07;16.10;71.50
13332;DHT22;6735;51.456;12.626;2023-04-24T05:49:33;15.60;72.40
13332;DHT22;6735;51.456;12.626;2023-04-24T05:51:58;15.10;73.40
13332;DHT22;6735;51.456;12.626;2023-04-24T05:54:24;15.10;73.70
13332;DHT22;6735;51.456;12.626;2023-04-24T05:56:49;15.10;73.20
13332;DHT22;6735;51.456;12.626;2023-04-24T05:59:16;14.90;73.80
13332;DHT22;6735;51.456;12.626;2023-04-24T06:01:41;15.10;73.90
13332;DHT22;6735;51.456;12.626;2023-04-24T06:04:07;15.60;72.10
13332;DHT22;6735;51.456;12.626;2023-04-24T06:06:32;15.80;71.00
13332;DHT22;6735;51.456;12.626;2023-04-24T06:08:58;15.80;71.30
13332;DHT22;6735;51.456;12.626;2023-04-24T06:11:24;16.20;71.40
13332;DHT22;6735;51.456;12.626;2023-04-24T06:13:50;16.80;69.10
13332;DHT22;6735;51.456;12.626;2023-04-24T06:16:15;17.30;67.50
13332;DHT22;6735;51.456;12.626;2023-04-24T06:18:41;17.80;65.70
13332;DHT22;6735;51.456;12.626;2023-04-24T06:21:06;17.60;66.20
13332;DHT22;6735;51.456;12.626;2023-04-24T06:23:32;17.20;67.90
13332;DHT22;6735;51.456;12.626;2023-04-24T06:25:58;17.20;67.00
13332;DHT22;6735;51.456;12.626;2023-04-24T06:28:24;17.40;66.70
13332;DHT22;6735;51.456;12.626;2023-04-24T06:30:49;17.30;66.90
13332;DHT22;6735;51.456;12.626;2023-04-24T06:33:16;17.30;65.80
13332;DHT22;6735;51.456;12.626;2023-04-24T06:35:41;17.20;65.10
13332;DHT22;6735;51.456;12.626;2023-04-24T06:38:07;16.80;65.70
13332;DHT22;6735;51.456;12.626;2023-04-24T06:40:32;16.70;64.70
13332;DHT22;6735;51.456;12.626;2023-04-24T06:42:58;16.70;65.30
13332;DHT22;6735;51.456;12.626;2023-04-24T06:45:25;16.80;65.20
13332;DHT22;6735;51.456;12.626;2023-04-24T06:47:51;16.70;65.40
13332;DHT22;6735;51.456;12.626;2023-04-24T06:50:16;16.40;65.40
13332;DHT22;6735;51.456;12.626;2023-04-24T06:52:42;16.20;66.80
13332;DHT22;6735;51.456;12.626;2023-04-24T06:55:08;16.10;66.80
13332;DHT22;6735;51.456;12.626;2023-04-24T06:57:33;16.10;67.00
13332;DHT22;6735;51.456;12.626;2023-04-24T06:59:59;15.90;67.30
13332;DHT22;6735;51.456;12.626;2023-04-24T07:02:25;15.70;66.70
13332;DHT22;6735;51.456;12.626;2023-04-24T07:04:50;15.60;67.20
13332;DHT22;6735;51.456;12.626;2023-04-24T07:07:16;15.50;67.20
13332;DHT22;6735;51.456;12.626;2023-04-24T07:09:41;15.50;67.50
13332;DHT22;6735;51.456;12.626;2023-04-24T07:12:08;15.30;68.10
13332;DHT22;6735;51.456;12.626;2023-04-24T07:14:33;15.30;68.50
13332;DHT22;6735;51.456;12.626;2023-04-24T07:16:59;15.20;69.00
13332;DHT22;6735;51.456;12.626;2023-04-24T07:19:24;15.20;69.00
13332;DHT22;6735;51.456;12.626;2023-04-24T07:21:50;15.20;69.00
13332;DHT22;6735;51.456;12.626;2023-04-24T07:24:15;15.20;69.10
13332;DHT22;6735;51.456;12.626;2023-04-24T07:26:41;15.20;69.30
13332;DHT22;6735;51.456;12.626;2023-04-24T07:29:07;15.20;69.00
13332;DHT22;6735;51.456;12.626;2023-04-24T07:31:33;15.20;69.10
13332;DHT22;6735;51.456;12.626;2023-04-24T07:33:58;15.40;69.00
13332;DHT22;6735;51.456;12.626;2023-04-24T07:36:24;15.60;68.40
13332;DHT22;6735;51.456;12.626;2023-04-24T07:38:51;15.70;68.20
13332;DHT22;6735;51.456;12.626;2023-04-24T07:41:17;15.70;67.80
13332;DHT22;6735;51.456;12.626;2023-04-24T07:43:44;15.70;67.60
13332;DHT22;6735;51.456;12.626;2023-04-24T07:46:10;15.70;67.80
13332;DHT22;6735;51.456;12.626;2023-04-24T07:48:36;15.70;67.60
13332;DHT22;6735;51.456;12.626;2023-04-24T07:51:02;15.70;67.40
13332;DHT22;6735;51.456;12.626;2023-04-24T07:53:27;15.60;67.60
13332;DHT22;6735;51.456;12.626;2023-04-24T07:55:55;15.50;67.60
13332;DHT22;6735;51.456;12.626;2023-04-24T07:58:20;15.40;67.00
13332;DHT22;6735;51.456;12.626;2023-04-24T08:00:46;15.50;67.40
13332;DHT22;6735;51.456;12.626;2023-04-24T08:03:12;15.60;66.80
13332;DHT22;6735;51.456;12.626;2023-04-24T08:05:38;15.80;66.20
13332;DHT22;6735;51.456;12.626;2023-04-24T08:08:03;16.00;66.00
13332;DHT22;6735;51.456;12.626;2023-04-24T08:10:29;16.10;65.60
13332;DHT22;6735;51.456;12.626;2023-04-24T08:12:54;16.20;65.00
13332;DHT22;6735;51.456;12.626;2023-04-24T08:15:20;16.20;64.70
13332;DHT22;6735;51.456;12.626;2023-04-24T08:17:46;16.20;64.90
13332;DHT22;6735;51.456;12.626;2023-04-24T08:20:12;16.20;64.70
13332;DHT22;6735;51.456;12.626;2023-04-24T08:22:41;16.40;64.30
13332;DHT22;6735;51.456;12.626;2023-04-24T08:25:07;16.50;63.70
13332;DHT22;6735;51.456;12.626;2023-04-24T08:27:33;16.70;62.20
13332;DHT22;6735;51.456;12.626;2023-04-24T08:29:58;16.80;61.50
13332;DHT22;6735;51.456;12.626;2023-04-24T08:32:25;17.10;61.40
13332;DHT22;6735;51.456;12.626;2023-04-24T08:34:53;17.10;60.10
13332;DHT22;6735;51.456;12.626;2023-04-24T08:37:18;17.00;59.60
13332;DHT22;6735;51.456;12.626;2023-04-24T08:39:44;17.10;61.20
13332;DHT22;6735;51.456;12.626;2023-04-24T08:42:11;17.10;60.80
13332;DHT22;6735;51.456;12.626;2023-04-24T08:44:38;16.90;60.30
13332;DHT22;6735;51.456;12.626;2023-04-24T08:47:04;17.00;60.40
13332;DHT22;6735;51.456;12.626;2023-04-24T08:49:31;17.00;59.80
13332;DHT22;6735;51.456;12.626;2023-04-24T08:51:56;17.00;60.50
13332;DHT22;6735;51.456;12.626;2023-04-24T08:54:22;17.20;60.00
13332;DHT22;6735;51.456;12.626;2023-04-24T08:56:48;17.20;59.90
13332;DHT22;6735;51.456;12.626;2023-04-24T08:59:15;17.10;60.20
13332;DHT22;6735;51.456;12.626;2023-04-24T09:01:41;17.20;60.40
13332;DHT22;6735;51.456;12.626;2023-04-24T09:04:08;17.20;60.40
13332;DHT22;6735;51.456;12.626;2023-04-24T09:06:38;17.20;60.20
13332;DHT22;6735;51.456;12.626;2023-04-24T09:09:04;17.10;60.60
13332;DHT22;6735;51.456;12.626;2023-04-24T09:11:33;17.00;59.90
13332;DHT22;6735;51.456;12.626;2023-04-24T09:13:59;17.10;60.00
13332;DHT22;6735;51.456;12.626;2023-04-24T09:16:26;17.00;59.10
13332;DHT22;6735;51.456;12.626;2023-04-24T09:18:51;17.10;59.60
13332;DHT22;6735;51.456;12.626;2023-04-24T09:21:18;17.10;59.00
13332;DHT22;6735;51.456;12.626;2023-04-24T09:23:45;17.20;58.20
13332;DHT22;6735;51.456;12.626;2023-04-24T09:26:11;17.40;57.80
13332;DHT22;6735;51.456;12.626;2023-04-24T09:28:40;18.00;56.70
13332;DHT22;6735;51.456;12.626;2023-04-24T09:31:08;18.40;56.00
13332;DHT22;6735;51.456;12.626;2023-04-24T09:33:35;18.60;55.10
13332;DHT22;6735;51.456;12.626;2023-04-24T09:36:01;18.40;53.60
13332;DHT22;6735;51.456;12.626;2023-04-24T09:38:37;18.20;54.40
13332;DHT22;6735;51.456;12.626;2023-04-24T09:41:05;18.10;53.00
13332;DHT22;6735;51.456;12.626;2023-04-24T09:43:31;17.90;55.20
13332;DHT22;6735;51.456;12.626;2023-04-24T09:45:58;17.90;55.10
13332;DHT22;6735;51.456;12.626;2023-04-24T09:48:33;17.80;55.00
13332;DHT22;6735;51.456;12.626;2023-04-24T09:51:01;17.70;55.40
13332;DHT22;6735;51.456;12.626;2023-04-24T09:53:27;17.40;55.70
13332;DHT22;6735;51.456;12.626;2023-04-24T09:55:52;17.20;56.40
13332;DHT22;6735;51.456;12.626;2023-04-24T09:58:28;17.20;55.90
13332;DHT22;6735;51.456;12.626;2023-04-24T10:00:54;17.20;56.60
13332;DHT22;6735;51.456;12.626;2023-04-24T10:03:23;17.10;56.80
13332;DHT22;6735;51.456;12.626;2023-04-24T10:05:51;17.20;56.70
13332;DHT22;6735;51.456;12.626;2023-04-24T10:08:17;17.20;57.00
13332;DHT22;6735;51.456;12.626;2023-04-24T10:10:44;17.30;56.90
13332;DHT22;6735;51.456;12.626;2023-04-24T10:13:12;17.40;56.50
13332;DHT22;6735;51.456;12.626;2023-04-24T10:15:38;17.20;55.60
13332;DHT22;6735;51.456;12.626;2023-04-24T10:18:05;17.20;55.70
13332;DHT22;6735;51.456;12.626;2023-04-24T10:20:32;17.30;55.70
13332;DHT22;6735;51.456;12.626;2023-04-24T10:22:59;17.50;55.40
13332;DHT22;6735;51.456;12.626;2023-04-24T10:25:30;17.70;55.10
13332;DHT22;6735;51.456;12.626;2023-04-24T10:27:57;17.70;55.10
13332;DHT22;6735;51.456;12.626;2023-04-24T10:30:25;17.70;53.90
13332;DHT22;6735;51.456;12.626;2023-04-24T10:32:51;17.70;53.90
13332;DHT22;6735;51.456;12.626;2023-04-24T10:35:17;17.70;53.80
13332;DHT22;6735;51.456;12.626;2023-04-24T10:37:50;17.90;53.00
13332;DHT22;6735;51.456;12.626;2023-04-24T10:40:18;17.90;52.80
13332;DHT22;6735;51.456;12.626;2023-04-24T10:42:47;18.10;52.30
13332;DHT22;6735;51.456;12.626;2023-04-24T10:45:24;18.40;51.60
13332;DHT22;6735;51.456;12.626;2023-04-24T10:48:04;18.50;51.10
13332;DHT22;6735;51.456;12.626;2023-04-24T10:50:45;18.40;51.40
13332;DHT22;6735;51.456;12.626;2023-04-24T10:53:19;18.20;48.00
13332;DHT22;6735;51.456;12.626;2023-04-24T10:55:48;18.20;49.10
13332;DHT22;6735;51.456;12.626;2023-04-24T10:58:14;18.00;49.90
13332;DHT22;6735;51.456;12.626;2023-04-24T11:00:42;18.00;48.60
13332;DHT22;6735;51.456;12.626;2023-04-24T11:03:29;18.00;47.80
13332;DHT22;6735;51.456;12.626;2023-04-24T11:06:06;18.10;46.60
13332;DHT22;6735;51.456;12.626;2023-04-24T11:08:43;18.20;47.90
13332;DHT22;6735;51.456;12.626;2023-04-24T11:11:12;18.30;47.90
13332;DHT22;6735;51.456;12.626;2023-04-24T11:16:27;18.20;47.60
13332;DHT22;6735;51.456;12.626;2023-04-24T11:19:05;18.20;47.70
13332;DHT22;6735;51.456;12.626;2023-04-24T11:26:48;18.70;44.80
13332;DHT22;6735;51.456;12.626;2023-04-24T11:29:13;19.00;44.90
13332;DHT22;6735;51.456;12.626;2023-04-24T11:31:44;19.20;44.50
13332;DHT22;6735;51.456;12.626;2023-04-24T11:34:15;19.20;43.00
13332;DHT22;6735;51.456;12.626;2023-04-24T11:36:47;19.20;43.00
13332;DHT22;6735;51.456;12.626;2023-04-24T11:39:14;19.20;41.30
13332;DHT22;6735;51.456;12.626;2023-04-24T11:41:40;19.20;43.30
13332;DHT22;6735;51.456;12.626;2023-04-24T11:44:07;19.30;42.80
13332;DHT22;6735;51.456;12.626;2023-04-24T11:46:33;19.60;41.50
13332;DHT22;6735;51.456;12.626;2023-04-24T11:48:59;19.70;41.50
13332;DHT22;6735;51.456;12.626;2023-04-24T11:51:26;19.90;41.10
13332;DHT22;6735;51.456;12.626;2023-04-24T11:53:56;20.00;39.90
13332;DHT22;6735;51.456;12.626;2023-04-24T11:56:22;20.10;40.50
13332;DHT22;6735;51.456;12.626;2023-04-24T11:58:48;20.40;39.20
13332;DHT22;6735;51.456;12.626;2023-04-24T12:01:16;20.30;37.70
13332;DHT22;6735;51.456;12.626;2023-04-24T12:03:47;20.20;39.60
13332;DHT22;6735;51.456;12.626;2023-04-24T12:06:13;20.60;38.00
13332;DHT22;6735;51.456;12.626;2023-04-24T12:08:39;20.60;38.30
13332;DHT22;6735;51.456;12.626;2023-04-24T12:11:06;20.60;38.20
13332;DHT22;6735;51.456;12.626;2023-04-24T12:13:35;20.20;37.60
13332;DHT22;6735;51.456;12.626;2023-04-24T12:16:03;20.10;38.70
13332;DHT22;6735;51.456;12.626;2023-04-24T12:18:30;19.90;39.30
13332;DHT22;6735;51.456;12.626;2023-04-24T12:21:14;20.00;38.60
13332;DHT22;6735;51.456;12.626;2023-04-24T12:23:43;20.20;37.10
13332;DHT22;6735;51.456;12.626;2023-04-24T12:26:08;20.20;38.30
13332;DHT22;6735;51.456;12.626;2023-04-24T12:28:36;20.20;38.80
13332;DHT22;6735;51.456;12.626;2023-04-24T12:31:02;20.00;38.30
13332;DHT22;6735;51.456;12.626;2023-04-24T12:33:28;19.80;39.20
13332;DHT22;6735;51.456;12.626;2023-04-24T12:35:57;19.60;38.90
13332;DHT22;6735;51.456;12.626;2023-04-24T12:38:24;19.40;39.60
13332;DHT22;6735;51.456;12.626;2023-04-24T12:41:05;19.70;39.40
13332;DHT22;6735;51.456;12.626;2023-04-24T12:43:30;20.00;38.60
13332;DHT22;6735;51.456;12.626;2023-04-24T12:45:56;20.10;38.90
13332;DHT22;6735;51.456;12.626;2023-04-24T12:48:22;20.20;38.60
13332;DHT22;6735;51.456;12.626;2023-04-24T12:50:48;20.30;37.90
13332;DHT22;6735;51.456;12.626;2023-04-24T12:53:14;20.20;37.60
13332;DHT22;6735;51.456;12.626;2023-04-24T12:55:40;20.30;37.30
13332;DHT22;6735;51.456;12.626;2023-04-24T12:58:06;20.40;37.20
13332;DHT22;6735;51.456;12.626;2023-04-24T13:00:31;20.20;37.10
13332;DHT22;6735;51.456;12.626;2023-04-24T13:02:57;20.00;37.40
13332;DHT22;6735;51.456;12.626;2023-04-24T13:05:22;19.90;37.90
13332;DHT22;6735;51.456;12.626;2023-04-24T13:07:48;19.70;38.60
13332;DHT22;6735;51.456;12.626;2023-04-24T13:10:13;19.40;39.20
13332;DHT22;6735;51.456;12.626;2023-04-24T13:12:39;19.20;39.00
13332;DHT22;6735;51.456;12.626;2023-04-24T13:15:06;18.90;39.20
13332;DHT22;6735;51.456;12.626;2023-04-24T13:17:31;18.80;39.10
13332;DHT22;6735;51.456;12.626;2023-04-24T13:19:57;19.10;38.40
13332;DHT22;6735;51.456;12.626;2023-04-24T13:22:22;19.20;38.30
13332;DHT22;6735;51.456;12.626;2023-04-24T13:24:48;19.40;38.20
13332;DHT22;6735;51.456;12.626;2023-04-24T13:27:15;19.40;37.90
13332;DHT22;6735;51.456;12.626;2023-04-24T13:29:40;19.20;38.10
13332;DHT22;6735;51.456;12.626;2023-04-24T13:32:07;18.90;37.90
13332;DHT22;6735;51.456;12.626;2023-04-24T13:34:32;18.80;38.20
13332;DHT22;6735;51.456;12.626;2023-04-24T13:36:59;18.70;38.20
13332;DHT22;6735;51.456;12.626;2023-04-24T13:39:25;18.60;37.90
13332;DHT22;6735;51.456;12.626;2023-04-24T13:41:51;18.40;37.80
13332;DHT22;6735;51.456;12.626;2023-04-24T13:44:18;18.50;37.70
13332;DHT22;6735;51.456;12.626;2023-04-24T13:46:46;18.50;37.60
13332;DHT22;6735;51.456;12.626;2023-04-24T13:49:12;18.70;37.50
13332;DHT22;6735;51.456;12.626;2023-04-24T13:51:39;18.80;37.60
13332;DHT22;6735;51.456;12.626;2023-04-24T13:54:05;18.80;38.00
13332;DHT22;6735;51.456;12.626;2023-04-24T13:56:30;18.70;37.60
13332;DHT22;6735;51.456;12.626;2023-04-24T13:58:56;18.60;37.90
13332;DHT22;6735;51.456;12.626;2023-04-24T14:01:22;18.40;37.80
13332;DHT22;6735;51.456;12.626;2023-04-24T14:03:51;18.50;38.60
13332;DHT22;6735;51.456;12.626;2023-04-24T14:06:18;18.50;38.80
13332;DHT22;6735;51.456;12.626;2023-04-24T14:08:43;18.50;38.80
13332;DHT22;6735;51.456;12.626;2023-04-24T14:11:09;18.40;39.10
13332;DHT22;6735;51.456;12.626;2023-04-24T14:13:36;18.30;39.30
13332;DHT22;6735;51.456;12.626;2023-04-24T14:16:01;18.10;39.70
13332;DHT22;6735;51.456;12.626;2023-04-24T14:18:27;17.90;39.80
13332;DHT22;6735;51.456;12.626;2023-04-24T14:20:52;17.80;39.80
13332;DHT22;6735;51.456;12.626;2023-04-24T14:23:18;17.90;39.90
13332;DHT22;6735;51.456;12.626;2023-04-24T14:25:43;17.90;40.20
13332;DHT22;6735;51.456;12.626;2023-04-24T14:28:09;17.90;40.30
13332;DHT22;6735;51.456;12.626;2023-04-24T14:30:34;17.90;40.50
13332;DHT22;6735;51.456;12.626;2023-04-24T14:33:03;17.90;40.90
13332;DHT22;6735;51.456;12.626;2023-04-24T14:35:29;17.90;41.10
13332;DHT22;6735;51.456;12.626;2023-04-24T14:37:56;17.90;41.00
13332;DHT22;6735;51.456;12.626;2023-04-24T14:40:22;17.90;41.00
13332;DHT22;6735;51.456;12.626;2023-04-24T14:42:47;18.00;40.40
13332;DHT22;6735;51.456;12.626;2023-04-24T14:45:13;18.30;40.60
13332;DHT22;6735;51.456;12.626;2023-04-24T14:47:38;18.40;40.30
13332;DHT22;6735;51.456;12.626;2023-04-24T14:50:05;18.20;40.30
13332;DHT22;6735;51.456;12.626;2023-04-24T14:52:30;18.10;40.50
13332;DHT22;6735;51.456;12.626;2023-04-24T14:54:56;17.90;41.20
13332;DHT22;6735;51.456;12.626;2023-04-24T14:57:22;18.10;41.40
13332;DHT22;6735;51.456;12.626;2023-04-24T14:59:47;18.20;41.00
13332;DHT22;6735;51.456;12.626;2023-04-24T15:02:13;18.00;41.00
13332;DHT22;6735;51.456;12.626;2023-04-24T15:04:38;17.70;41.00
13332;DHT22;6735;51.456;12.626;2023-04-24T15:07:04;17.70;41.60
13332;DHT22;6735;51.456;12.626;2023-04-24T15:09:29;17.70;41.90
13332;DHT22;6735;51.456;12.626;2023-04-24T15:11:57;17.70;42.10
13332;DHT22;6735;51.456;12.626;2023-04-24T15:14:22;17.50;42.60
13332;DHT22;6735;51.456;12.626;2023-04-24T15:16:48;17.40;43.30
13332;DHT22;6735;51.456;12.626;2023-04-24T15:19:13;17.10;44.50
13332;DHT22;6735;51.456;12.626;2023-04-24T15:21:39;17.10;44.40
13332;DHT22;6735;51.456;12.626;2023-04-24T15:24:06;17.00;44.80
13332;DHT22;6735;51.456;12.626;2023-04-24T15:26:32;16.90;45.00
13332;DHT22;6735;51.456;12.626;2023-04-24T15:28:57;16.70;45.10
13332;DHT22;6735;51.456;12.626;2023-04-24T15:31:23;16.80;45.20
13332;DHT22;6735;51.456;12.626;2023-04-24T15:33:49;16.80;45.40